sensor_id;sensor_type;location;lat;lon;timestamp;pressure;altitude;pressure_sealevel;temperature;humidity
66664;BME280;59683;51.428;-1.994;2024-01-30T00:01:51;101155.53;;;9.29;100.00
66664;BME280;59683;51.428;-1.994;2024-01-30T00:04:16;101164.50;;;9.27;100.00
66664;BME280;59683;51.428;-1.994;2024-01-30T00:06:43;101162.88;;;9.24;100.00
66664;BME280;59683;51.428;-1.994;2024-01-30T00:09:08;101152.50;;;9.21;100.00
66664;BME280;59683;51.428;-1.994;2024-01-30T00:11:35;101143.84;;;9.19;100.00
66664;BME280;59683;51.428;-1.994;2024-01-30T00:14:00;101143.75;;;9.20;100.00
66664;BME280;59683;51.428;-1.994;2024-01-30T00:16:26;101141.09;;;9.20;100.00
66664;BME280;59683;51.428;-1.994;2024-01-30T00:18:52;101154.41;;;9.19;100.00
66664;BME280;59683;51.428;-1.994;2024-01-30T00:21:18;101153.56;;;9.18;100.00
66664;BME280;59683;51.428;-1.994;2024-01-30T00:23:44;101162.66;;;9.14;100.00
66664;BME280;59683;51.428;-1.994;2024-01-30T00:26:09;101153.97;;;9.12;100.00
66664;BME280;59683;51.428;-1.994;2024-01-30T00:28:39;101156.59;;;9.12;100.00
66664;BME280;59683;51.428;-1.994;2024-01-30T00:31:04;101135.03;;;9.06;100.00
66664;BME280;59683;51.428;-1.994;2024-01-30T00:33:30;101122.25;;;8.99;100.00
66664;BME280;59683;51.428;-1.994;2024-01-30T00:35:56;101128.09;;;8.90;100.00
66664;BME280;59683;51.428;-1.994;2024-01-30T00:38:22;101152.28;;;8.84;100.00
66664;BME280;59683;51.428;-1.994;2024-01-30T00:40:47;101167.53;;;8.79;100.00
66664;BME280;59683;51.428;-1.994;2024-01-30T00:43:13;101164.16;;;8.77;100.00
66664;BME280;59683;51.428;-1.994;2024-01-30T00:45:38;101178.38;;;8.74;100.00
66664;BME280;59683;51.428;-1.994;2024-01-30T00:48:04;101174.06;;;8.73;100.00
66664;BME280;59683;51.428;-1.994;2024-01-30T00:50:29;101190.91;;;8.71;100.00
66664;BME280;59683;51.428;-1.994;2024-01-30T00:52:55;101190.81;;;8.72;100.00
66664;BME280;59683;51.428;-1.994;2024-01-30T00:55:20;101192.59;;;8.72;100.00
66664;BME280;59683;51.428;-1.994;2024-01-30T00:57:46;101195.06;;;8.75;100.00
66664;BME280;59683;51.428;-1.994;2024-01-30T01:00:12;101195.06;;;8.75;100.00
66664;BME280;59683;51.428;-1.994;2024-01-30T01:02:38;101199.19;;;8.79;100.00
66664;BME280;59683;51.428;-1.994;2024-01-30T01:05:06;101192.91;;;8.82;100.00
66664;BME280;59683;51.428;-1.994;2024-01-30T01:07:32;101194.28;;;8.87;100.00
66664;BME280;59683;51.428;-1.994;2024-01-30T01:09:57;101183.53;;;8.90;100.00
66664;BME280;59683;51.428;-1.994;2024-01-30T01:12:22;101180.06;;;8.90;100.00
66664;BME280;59683;51.428;-1.994;2024-01-30T01:14:48;101179.50;;;8.85;100.00
66664;BME280;59683;51.428;-1.994;2024-01-30T01:17:13;101184.59;;;8.88;100.00
66664;BME280;59683;51.428;-1.994;2024-01-30T01:19:38;101177.16;;;8.80;100.00
66664;BME280;59683;51.428;-1.994;2024-01-30T01:22:04;101174.53;;;8.80;100.00
66664;BME280;59683;51.428;-1.994;2024-01-30T01:24:31;101180.44;;;8.84;100.00
66664;BME280;59683;51.428;-1.994;2024-01-30T01:26:57;101176.75;;;8.86;100.00
66664;BME280;59683;51.428;-1.994;2024-01-30T01:29:23;101181.31;;;8.84;100.00
66664;BME280;59683;51.428;-1.994;2024-01-30T01:31:57;101184.69;;;8.86;100.00
66664;BME280;59683;51.428;-1.994;2024-01-30T01:34:22;101187.44;;;8.85;100.00
66664;BME280;59683;51.428;-1.994;2024-01-30T01:36:51;101180.16;;;8.88;100.00
66664;BME280;59683;51.428;-1.994;2024-01-30T01:39:17;101192.28;;;8.91;100.00
66664;BME280;59683;51.428;-1.994;2024-01-30T01:41:42;101187.91;;;8.91;100.00
66664;BME280;59683;51.428;-1.994;2024-01-30T01:44:08;101199.28;;;8.92;100.00
66664;BME280;59683;51.428;-1.994;2024-01-30T01:46:34;101192.22;;;8.92;100.00
66664;BME280;59683;51.428;-1.994;2024-01-30T01:49:00;101198.44;;;8.91;100.00
66664;BME280;59683;51.428;-1.994;2024-01-30T01:51:27;101205.59;;;8.89;100.00
66664;BME280;59683;51.428;-1.994;2024-01-30T01:53:55;101197.31;;;8.81;100.00
66664;BME280;59683;51.428;-1.994;2024-01-30T01:56:22;101200.44;;;8.73;100.00
66664;BME280;59683;51.428;-1.994;2024-01-30T01:58:49;101210.25;;;8.71;100.00
66664;BME280;59683;51.428;-1.994;2024-01-30T02:01:16;101204.88;;;8.73;100.00
66664;BME280;59683;51.428;-1.994;2024-01-30T02:03:44;101220.78;;;8.71;100.00
66664;BME280;59683;51.428;-1.994;2024-01-30T02:06:09;101223.72;;;8.67;100.00
66664;BME280;59683;51.428;-1.994;2024-01-30T02:08:37;101217.31;;;8.57;100.00
66664;BME280;59683;51.428;-1.994;2024-01-30T02:11:02;101223.25;;;8.46;100.00
66664;BME280;59683;51.428;-1.994;2024-01-30T02:13:27;101223.72;;;8.38;100.00
66664;BME280;59683;51.428;-1.994;2024-01-30T02:15:54;101212.75;;;8.30;100.00
66664;BME280;59683;51.428;-1.994;2024-01-30T02:18:19;101220.47;;;8.19;100.00
66664;BME280;59683;51.428;-1.994;2024-01-30T02:20:46;101220.06;;;8.11;100.00
66664;BME280;59683;51.428;-1.994;2024-01-30T02:23:12;101229.28;;;8.03;100.00
66664;BME280;59683;51.428;-1.994;2024-01-30T02:25:40;101224.38;;;7.97;100.00
66664;BME280;59683;51.428;-1.994;2024-01-30T02:28:13;101232.66;;;7.91;100.00
66664;BME280;59683;51.428;-1.994;2024-01-30T02:30:44;101228.66;;;7.84;100.00
66664;BME280;59683;51.428;-1.994;2024-01-30T02:33:10;101250.03;;;7.79;100.00
66664;BME280;59683;51.428;-1.994;2024-01-30T02:35:35;101242.63;;;7.70;100.00
66664;BME280;59683;51.428;-1.994;2024-01-30T02:38:01;101250.75;;;7.67;100.00
66664;BME280;59683;51.428;-1.994;2024-01-30T02:40:26;101248.44;;;7.61;100.00
66664;BME280;59683;51.428;-1.994;2024-01-30T02:42:52;101262.72;;;7.57;100.00
66664;BME280;59683;51.428;-1.994;2024-01-30T02:45:17;101263.00;;;7.52;100.00
66664;BME280;59683;51.428;-1.994;2024-01-30T02:47:43;101266.53;;;7.51;100.00
66664;BME280;59683;51.428;-1.994;2024-01-30T02:50:08;101267.13;;;7.41;100.00
66664;BME280;59683;51.428;-1.994;2024-01-30T02:52:34;101276.25;;;7.35;100.00
66664;BME280;59683;51.428;-1.994;2024-01-30T02:55:00;101280.84;;;7.32;100.00
66664;BME280;59683;51.428;-1.994;2024-01-30T02:57:25;101280.75;;;7.33;100.00
66664;BME280;59683;51.428;-1.994;2024-01-30T02:59:51;101285.41;;;7.28;100.00
66664;BME280;59683;51.428;-1.994;2024-01-30T03:02:16;101285.94;;;7.19;100.00
66664;BME280;59683;51.428;-1.994;2024-01-30T03:04:41;101300.28;;;7.13;100.00
66664;BME280;59683;51.428;-1.994;2024-01-30T03:07:07;101299.00;;;7.04;100.00
66664;BME280;59683;51.428;-1.994;2024-01-30T03:09:33;101297.53;;;6.99;100.00
66664;BME280;59683;51.428;-1.994;2024-01-30T03:11:58;101309.94;;;6.97;100.00
66664;BME280;59683;51.428;-1.994;2024-01-30T03:14:23;101320.53;;;6.95;100.00
66664;BME280;59683;51.428;-1.994;2024-01-30T03:16:49;101319.69;;;6.95;100.00
66664;BME280;59683;51.428;-1.994;2024-01-30T03:19:14;101313.72;;;6.91;100.00
66664;BME280;59683;51.428;-1.994;2024-01-30T03:21:40;101328.75;;;6.89;100.00
66664;BME280;59683;51.428;-1.994;2024-01-30T03:24:05;101332.09;;;6.93;100.00
66664;BME280;59683;51.428;-1.994;2024-01-30T03:26:31;101330.16;;;6.96;100.00
66664;BME280;59683;51.428;-1.994;2024-01-30T03:28:56;101339.56;;;7.00;100.00
66664;BME280;59683;51.428;-1.994;2024-01-30T03:31:21;101337.00;;;6.99;100.00
66664;BME280;59683;51.428;-1.994;2024-01-30T03:33:47;101350.94;;;7.01;100.00
66664;BME280;59683;51.428;-1.994;2024-01-30T03:36:12;101354.97;;;7.08;100.00
66664;BME280;59683;51.428;-1.994;2024-01-30T03:38:38;101341.44;;;7.14;100.00
66664;BME280;59683;51.428;-1.994;2024-01-30T03:41:07;101336.19;;;7.14;100.00
66664;BME280;59683;51.428;-1.994;2024-01-30T03:43:32;101351.13;;;7.14;100.00
66664;BME280;59683;51.428;-1.994;2024-01-30T03:45:57;101337.97;;;7.14;100.00
66664;BME280;59683;51.428;-1.994;2024-01-30T03:48:23;101346.91;;;7.11;100.00
66664;BME280;59683;51.428;-1.994;2024-01-30T03:50:48;101344.34;;;7.10;100.00
66664;BME280;59683;51.428;-1.994;2024-01-30T03:53:14;101351.47;;;7.08;100.00
66664;BME280;59683;51.428;-1.994;2024-01-30T03:55:39;101350.53;;;7.09;100.00
66664;BME280;59683;51.428;-1.994;2024-01-30T03:58:04;101350.69;;;7.05;100.00
66664;BME280;59683;51.428;-1.994;2024-01-30T04:00:30;101354.97;;;7.08;100.00
66664;BME280;59683;51.428;-1.994;2024-01-30T04:02:55;101352.22;;;7.10;100.00
66664;BME280;59683;51.428;-1.994;2024-01-30T04:05:20;101348.06;;;7.05;100.00
66664;BME280;59683;51.428;-1.994;2024-01-30T04:07:46;101349.06;;;7.03;100.00
66664;BME280;59683;51.428;-1.994;2024-01-30T04:10:11;101352.47;;;7.05;100.00
66664;BME280;59683;51.428;-1.994;2024-01-30T04:12:36;101337.84;;;6.99;100.00
66664;BME280;59683;51.428;-1.994;2024-01-30T04:15:02;101346.63;;;7.00;100.00
66664;BME280;59683;51.428;-1.994;2024-01-30T04:17:28;101352.03;;;6.97;100.00
66664;BME280;59683;51.428;-1.994;2024-01-30T04:19:54;101352.09;;;6.95;100.00
66664;BME280;59683;51.428;-1.994;2024-01-30T04:22:19;101361.94;;;6.92;100.00
66664;BME280;59683;51.428;-1.994;2024-01-30T04:24:45;101361.59;;;6.82;100.00
66664;BME280;59683;51.428;-1.994;2024-01-30T04:27:10;101370.63;;;6.76;100.00
66664;BME280;59683;51.428;-1.994;2024-01-30T04:29:36;101370.88;;;6.72;100.00
66664;BME280;59683;51.428;-1.994;2024-01-30T04:32:01;101376.09;;;6.73;100.00
66664;BME280;59683;51.428;-1.994;2024-01-30T04:34:26;101366.41;;;6.74;100.00
66664;BME280;59683;51.428;-1.994;2024-01-30T04:36:52;101373.66;;;6.69;100.00
66664;BME280;59683;51.428;-1.994;2024-01-30T04:39:17;101382.78;;;6.62;100.00
66664;BME280;59683;51.428;-1.994;2024-01-30T04:41:42;101380.88;;;6.48;100.00
66664;BME280;59683;51.428;-1.994;2024-01-30T04:44:08;101388.75;;;6.30;100.00
66664;BME280;59683;51.428;-1.994;2024-01-30T04:46:33;101407.75;;;6.18;100.00
66664;BME280;59683;51.428;-1.994;2024-01-30T04:49:01;101410.91;;;6.07;100.00
66664;BME280;59683;51.428;-1.994;2024-01-30T04:51:28;101429.28;;;6.07;100.00
66664;BME280;59683;51.428;-1.994;2024-01-30T04:53:53;101439.34;;;6.17;100.00
66664;BME280;59683;51.428;-1.994;2024-01-30T04:56:19;101439.91;;;6.23;100.00
66664;BME280;59683;51.428;-1.994;2024-01-30T04:58:44;101450.91;;;6.31;100.00
66664;BME280;59683;51.428;-1.994;2024-01-30T05:01:14;101448.28;;;6.31;100.00
66664;BME280;59683;51.428;-1.994;2024-01-30T05:03:40;101444.56;;;6.36;100.00
66664;BME280;59683;51.428;-1.994;2024-01-30T05:06:05;101453.47;;;6.33;100.00
66664;BME280;59683;51.428;-1.994;2024-01-30T05:08:31;101453.75;;;6.27;100.00
66664;BME280;59683;51.428;-1.994;2024-01-30T05:11:00;101456.91;;;6.16;100.00
66664;BME280;59683;51.428;-1.994;2024-01-30T05:13:25;101470.22;;;6.13;100.00
66664;BME280;59683;51.428;-1.994;2024-01-30T05:15:51;101475.66;;;6.08;100.00
66664;BME280;59683;51.428;-1.994;2024-01-30T05:18:16;101477.75;;;6.02;100.00
66664;BME280;59683;51.428;-1.994;2024-01-30T05:20:41;101484.97;;;5.97;100.00
66664;BME280;59683;51.428;-1.994;2024-01-30T05:23:07;101487.47;;;6.00;100.00
66664;BME280;59683;51.428;-1.994;2024-01-30T05:25:33;101495.00;;;6.07;100.00
66664;BME280;59683;51.428;-1.994;2024-01-30T05:27:58;101497.19;;;6.17;100.00
66664;BME280;59683;51.428;-1.994;2024-01-30T05:30:24;101501.31;;;6.22;100.00
66664;BME280;59683;51.428;-1.994;2024-01-30T05:32:49;101512.16;;;6.33;100.00
66664;BME280;59683;51.428;-1.994;2024-01-30T05:35:14;101507.75;;;6.34;100.00
66664;BME280;59683;51.428;-1.994;2024-01-30T05:37:40;101518.91;;;6.39;100.00
66664;BME280;59683;51.428;-1.994;2024-01-30T05:40:06;101511.81;;;6.41;100.00
66664;BME280;59683;51.428;-1.994;2024-01-30T05:42:31;101526.44;;;6.47;100.00
66664;BME280;59683;51.428;-1.994;2024-01-30T05:44:57;101525.28;;;6.52;100.00
66664;BME280;59683;51.428;-1.994;2024-01-30T05:47:22;101522.66;;;6.52;100.00
66664;BME280;59683;51.428;-1.994;2024-01-30T05:49:47;101528.84;;;6.51;100.00
66664;BME280;59683;51.428;-1.994;2024-01-30T05:52:13;101525.28;;;6.52;100.00
66664;BME280;59683;51.428;-1.994;2024-01-30T05:54:40;101536.81;;;6.50;100.00
66664;BME280;59683;51.428;-1.994;2024-01-30T05:57:05;101537.50;;;6.53;100.00
66664;BME280;59683;51.428;-1.994;2024-01-30T05:59:31;101546.25;;;6.54;100.00
66664;BME280;59683;51.428;-1.994;2024-01-30T06:01:57;101546.25;;;6.54;100.00
66664;BME280;59683;51.428;-1.994;2024-01-30T06:04:23;101554.22;;;6.52;100.00
66664;BME280;59683;51.428;-1.994;2024-01-30T06:06:48;101563.81;;;6.53;100.00
66664;BME280;59683;51.428;-1.994;2024-01-30T06:09:14;101565.22;;;6.61;100.00
66664;BME280;59683;51.428;-1.994;2024-01-30T06:11:39;101578.69;;;6.54;100.00
66664;BME280;59683;51.428;-1.994;2024-01-30T06:14:05;101584.81;;;6.55;100.00
66664;BME280;59683;51.428;-1.994;2024-01-30T06:16:30;101580.44;;;6.54;100.00
66664;BME280;59683;51.428;-1.994;2024-01-30T06:18:56;101578.59;;;6.56;100.00
66664;BME280;59683;51.428;-1.994;2024-01-30T06:21:22;101581.22;;;6.56;100.00
66664;BME280;59683;51.428;-1.994;2024-01-30T06:23:47;101596.16;;;6.55;100.00
66664;BME280;59683;51.428;-1.994;2024-01-30T06:26:12;101601.34;;;6.57;100.00
66664;BME280;59683;51.428;-1.994;2024-01-30T06:28:38;101602.19;;;6.57;100.00
66664;BME280;59683;51.428;-1.994;2024-01-30T06:31:03;101616.84;;;6.63;100.00
66664;BME280;59683;51.428;-1.994;2024-01-30T06:33:28;101617.97;;;6.57;100.00
66664;BME280;59683;51.428;-1.994;2024-01-30T06:35:54;101625.88;;;6.57;100.00
66664;BME280;59683;51.428;-1.994;2024-01-30T06:38:19;101621.75;;;6.52;100.00
66664;BME280;59683;51.428;-1.994;2024-01-30T06:40:45;101624.31;;;6.53;100.00
66664;BME280;59683;51.428;-1.994;2024-01-30T06:43:10;101636.56;;;6.54;100.00
66664;BME280;59683;51.428;-1.994;2024-01-30T06:45:36;101635.63;;;6.55;100.00
66664;BME280;59683;51.428;-1.994;2024-01-30T06:48:02;101642.59;;;6.56;100.00
66664;BME280;59683;51.428;-1.994;2024-01-30T06:50:28;101636.38;;;6.57;100.00
66664;BME280;59683;51.428;-1.994;2024-01-30T06:52:53;101658.50;;;6.53;100.00
66664;BME280;59683;51.428;-1.994;2024-01-30T06:55:18;101658.50;;;6.53;100.00
66664;BME280;59683;51.428;-1.994;2024-01-30T06:57:44;101669.09;;;6.52;100.00
66664;BME280;59683;51.428;-1.994;2024-01-30T07:00:10;101665.69;;;6.50;100.00
66664;BME280;59683;51.428;-1.994;2024-01-30T07:02:35;101671.94;;;6.47;100.00
66664;BME280;59683;51.428;-1.994;2024-01-30T07:05:01;101676.91;;;6.53;100.00
66664;BME280;59683;51.428;-1.994;2024-01-30T07:07:27;101674.41;;;6.50;100.00
66664;BME280;59683;51.428;-1.994;2024-01-30T07:09:53;101682.16;;;6.53;100.00
66664;BME280;59683;51.428;-1.994;2024-01-30T07:12:24;101691.72;;;6.56;100.00
66664;BME280;59683;51.428;-1.994;2024-01-30T07:14:51;101689.16;;;6.54;100.00
66664;BME280;59683;51.428;-1.994;2024-01-30T07:17:17;101691.78;;;6.54;100.00
66664;BME280;59683;51.428;-1.994;2024-01-30T07:19:42;101703.22;;;6.53;100.00
66664;BME280;59683;51.428;-1.994;2024-01-30T07:22:08;101705.72;;;6.56;100.00
66664;BME280;59683;51.428;-1.994;2024-01-30T07:24:33;101711.06;;;6.55;100.00
66664;BME280;59683;51.428;-1.994;2024-01-30T07:26:59;101711.09;;;6.53;100.00
66664;BME280;59683;51.428;-1.994;2024-01-30T07:29:24;101714.78;;;6.49;100.00
66664;BME280;59683;51.428;-1.994;2024-01-30T07:31:50;101719.06;;;6.52;100.00
66664;BME280;59683;51.428;-1.994;2024-01-30T07:34:15;101719.84;;;6.54;100.00
66664;BME280;59683;51.428;-1.994;2024-01-30T07:36:41;101724.22;;;6.55;100.00
66664;BME280;59683;51.428;-1.994;2024-01-30T07:39:06;101733.94;;;6.53;100.00
66664;BME280;59683;51.428;-1.994;2024-01-30T07:41:32;101734.06;;;6.50;100.00
66664;BME280;59683;51.428;-1.994;2024-01-30T07:43:57;101740.34;;;6.47;100.00
66664;BME280;59683;51.428;-1.994;2024-01-30T07:46:23;101744.88;;;6.44;100.00
66664;BME280;59683;51.428;-1.994;2024-01-30T07:48:48;101752.75;;;6.44;100.00
66664;BME280;59683;51.428;-1.994;2024-01-30T07:51:13;101762.34;;;6.45;100.00
66664;BME280;59683;51.428;-1.994;2024-01-30T07:53:39;101764.13;;;6.44;100.00
66664;BME280;59683;51.428;-1.994;2024-01-30T07:56:07;101762.47;;;6.42;100.00
66664;BME280;59683;51.428;-1.994;2024-01-30T07:58:32;101769.31;;;6.46;100.00
66664;BME280;59683;51.428;-1.994;2024-01-30T08:00:58;101768.97;;;6.53;100.00
66664;BME280;59683;51.428;-1.994;2024-01-30T08:03:24;101771.59;;;6.53;100.00
66664;BME280;59683;51.428;-1.994;2024-01-30T08:05:49;101774.34;;;6.50;100.00
66664;BME280;59683;51.428;-1.994;2024-01-30T08:08:14;101777.88;;;6.51;100.00
66664;BME280;59683;51.428;-1.994;2024-01-30T08:10:40;101772.66;;;6.49;100.00
66664;BME280;59683;51.428;-1.994;2024-01-30T08:13:05;101779.78;;;6.47;100.00
66664;BME280;59683;51.428;-1.994;2024-01-30T08:15:31;101782.41;;;6.47;100.00
66664;BME280;59683;51.428;-1.994;2024-01-30T08:17:56;101782.34;;;6.49;100.00
66664;BME280;59683;51.428;-1.994;2024-01-30T08:20:26;101782.41;;;6.47;100.00
66664;BME280;59683;51.428;-1.994;2024-01-30T08:22:52;101778.97;;;6.45;100.00
66664;BME280;59683;51.428;-1.994;2024-01-30T08:25:17;101786.16;;;6.42;100.00
66664;BME280;59683;51.428;-1.994;2024-01-30T08:27:42;101788.97;;;6.37;100.00
66664;BME280;59683;51.428;-1.994;2024-01-30T08:30:08;101795.94;;;6.38;100.00
66664;BME280;59683;51.428;-1.994;2024-01-30T08:32:34;101812.44;;;6.42;100.00
66664;BME280;59683;51.428;-1.994;2024-01-30T08:34:59;101817.56;;;6.45;100.00
66664;BME280;59683;51.428;-1.994;2024-01-30T08:37:25;101822.63;;;6.49;100.00
66664;BME280;59683;51.428;-1.994;2024-01-30T08:39:50;101815.25;;;6.57;100.00
66664;BME280;59683;51.428;-1.994;2024-01-30T08:42:16;101809.88;;;6.61;100.00
66664;BME280;59683;51.428;-1.994;2024-01-30T08:44:43;101816.81;;;6.62;100.00
66664;BME280;59683;51.428;-1.994;2024-01-30T08:47:09;101814.78;;;6.68;100.00
66664;BME280;59683;51.428;-1.994;2024-01-30T08:49:34;101835.00;;;7.07;100.00
66664;BME280;59683;51.428;-1.994;2024-01-30T08:51:59;101829.06;;;7.59;100.00
66664;BME280;59683;51.428;-1.994;2024-01-30T08:54:25;101823.34;;;8.04;100.00
66664;BME280;59683;51.428;-1.994;2024-01-30T08:56:50;101811.13;;;8.20;100.00
66664;BME280;59683;51.428;-1.994;2024-01-30T08:59:17;101805.84;;;8.20;100.00
66664;BME280;59683;51.428;-1.994;2024-01-30T09:01:42;101819.09;;;8.01;100.00
66664;BME280;59683;51.428;-1.994;2024-01-30T09:04:08;101820.63;;;7.88;100.00
66664;BME280;59683;51.428;-1.994;2024-01-30T09:06:33;101825.16;;;7.67;100.00
66664;BME280;59683;51.428;-1.994;2024-01-30T09:08:58;101848.22;;;7.62;100.00
66664;BME280;59683;51.428;-1.994;2024-01-30T09:11:24;101854.94;;;7.50;100.00
66664;BME280;59683;51.428;-1.994;2024-01-30T09:13:49;101867.38;;;7.47;100.00
66664;BME280;59683;51.428;-1.994;2024-01-30T09:16:15;101871.88;;;7.45;100.00
66664;BME280;59683;51.428;-1.994;2024-01-30T09:18:41;101874.66;;;7.42;100.00
66664;BME280;59683;51.428;-1.994;2024-01-30T09:21:07;101879.25;;;7.55;100.00
66664;BME280;59683;51.428;-1.994;2024-01-30T09:23:32;101873.59;;;7.65;100.00
66664;BME280;59683;51.428;-1.994;2024-01-30T09:25:58;101872.06;;;7.78;100.00
66664;BME280;59683;51.428;-1.994;2024-01-30T09:28:24;101872.72;;;7.83;100.00
66664;BME280;59683;51.428;-1.994;2024-01-30T09:30:49;101871.16;;;7.79;100.00
66664;BME280;59683;51.428;-1.994;2024-01-30T09:33:15;101881.38;;;7.85;100.00
66664;BME280;59683;51.428;-1.994;2024-01-30T09:35:40;101892.25;;;7.79;100.00
66664;BME280;59683;51.428;-1.994;2024-01-30T09:38:05;101897.34;;;7.82;100.00
66664;BME280;59683;51.428;-1.994;2024-01-30T09:40:31;101906.19;;;7.81;100.00
66664;BME280;59683;51.428;-1.994;2024-01-30T09:42:56;101906.50;;;7.75;100.00
66664;BME280;59683;51.428;-1.994;2024-01-30T09:45:25;101912.03;;;7.69;100.00
66664;BME280;59683;51.428;-1.994;2024-01-30T09:47:51;101915.09;;;7.60;100.00
66664;BME280;59683;51.428;-1.994;2024-01-30T09:50:18;101925.06;;;7.53;100.00
66664;BME280;59683;51.428;-1.994;2024-01-30T09:52:44;101926.06;;;7.50;100.00
66664;BME280;59683;51.428;-1.994;2024-01-30T09:55:09;101929.25;;;7.38;100.00
66664;BME280;59683;51.428;-1.994;2024-01-30T09:57:35;101939.28;;;7.30;100.00
66664;BME280;59683;51.428;-1.994;2024-01-30T10:00:01;101951.75;;;7.26;100.00
66664;BME280;59683;51.428;-1.994;2024-01-30T10:02:27;101956.28;;;7.23;100.00
66664;BME280;59683;51.428;-1.994;2024-01-30T10:04:52;101968.72;;;7.19;100.00
66664;BME280;59683;51.428;-1.994;2024-01-30T10:07:18;101981.75;;;7.22;100.00
66664;BME280;59683;51.428;-1.994;2024-01-30T10:09:44;101976.41;;;7.24;100.00
66664;BME280;59683;51.428;-1.994;2024-01-30T10:12:09;101983.50;;;7.22;100.00
66664;BME280;59683;51.428;-1.994;2024-01-30T10:14:42;101985.28;;;7.21;100.00
66664;BME280;59683;51.428;-1.994;2024-01-30T10:17:08;101988.94;;;7.19;100.00
66664;BME280;59683;51.428;-1.994;2024-01-30T10:19:34;101985.75;;;7.11;100.00
66664;BME280;59683;51.428;-1.994;2024-01-30T10:22:00;102002.69;;;7.05;100.00
66664;BME280;59683;51.428;-1.994;2024-01-30T10:24:26;102014.06;;;7.05;100.00
66664;BME280;59683;51.428;-1.994;2024-01-30T10:26:53;102016.72;;;7.05;100.00
66664;BME280;59683;51.428;-1.994;2024-01-30T10:29:18;102012.91;;;7.13;100.00
66664;BME280;59683;51.428;-1.994;2024-01-30T10:31:44;102012.81;;;7.14;100.00
66664;BME280;59683;51.428;-1.994;2024-01-30T10:34:09;102016.34;;;7.15;100.00
66664;BME280;59683;51.428;-1.994;2024-01-30T10:36:40;102019.53;;;7.21;100.00
66664;BME280;59683;51.428;-1.994;2024-01-30T10:39:07;102026.03;;;7.33;100.00
66664;BME280;59683;51.428;-1.994;2024-01-30T10:41:39;102033.09;;;7.33;100.00
66664;BME280;59683;51.428;-1.994;2024-01-30T10:44:08;102036.19;;;7.42;100.00
66664;BME280;59683;51.428;-1.994;2024-01-30T10:46:35;102038.69;;;7.45;100.00
66664;BME280;59683;51.428;-1.994;2024-01-30T10:49:03;102045.75;;;7.45;100.00
66664;BME280;59683;51.428;-1.994;2024-01-30T10:51:31;102040.53;;;7.43;100.00
66664;BME280;59683;51.428;-1.994;2024-01-30T10:53:56;102058.13;;;7.43;100.00
66664;BME280;59683;51.428;-1.994;2024-01-30T10:56:23;102062.75;;;7.38;100.00
66664;BME280;59683;51.428;-1.994;2024-01-30T10:58:53;102066.09;;;7.41;100.00
66664;BME280;59683;51.428;-1.994;2024-01-30T11:01:22;102075.59;;;7.45;100.00
66664;BME280;59683;51.428;-1.994;2024-01-30T11:03:50;102073.66;;;7.49;100.00
66664;BME280;59683;51.428;-1.994;2024-01-30T11:06:16;102062.84;;;7.55;100.00
66664;BME280;59683;51.428;-1.994;2024-01-30T11:08:44;102072.53;;;7.54;100.00
66664;BME280;59683;51.428;-1.994;2024-01-30T11:11:10;102069.50;;;7.64;100.00
66664;BME280;59683;51.428;-1.994;2024-01-30T11:13:36;102063.34;;;7.63;100.00
66664;BME280;59683;51.428;-1.994;2024-01-30T11:16:02;102072.91;;;7.66;100.00
66664;BME280;59683;51.428;-1.994;2024-01-30T11:18:32;102073.84;;;7.65;100.00
66664;BME280;59683;51.428;-1.994;2024-01-30T11:20:58;102079.84;;;7.68;100.00
66664;BME280;59683;51.428;-1.994;2024-01-30T11:23:26;102093.88;;;7.69;100.00
66664;BME280;59683;51.428;-1.994;2024-01-30T11:25:52;102080.78;;;7.67;100.00
66664;BME280;59683;51.428;-1.994;2024-01-30T11:28:18;102081.69;;;7.66;100.00
66664;BME280;59683;51.428;-1.994;2024-01-30T11:30:44;102075.28;;;7.72;100.00
66664;BME280;59683;51.428;-1.994;2024-01-30T11:33:13;102076.41;;;7.87;100.00
66664;BME280;59683;51.428;-1.994;2024-01-30T11:38:06;102077.13;;;8.09;100.00
66664;BME280;59683;51.428;-1.994;2024-01-30T11:40:33;102079.94;;;8.04;100.00
66664;BME280;59683;51.428;-1.994;2024-01-30T11:43:00;102094.06;;;8.03;100.00
66664;BME280;59683;51.428;-1.994;2024-01-30T11:45:29;102089.72;;;8.02;100.00
66664;BME280;59683;51.428;-1.994;2024-01-30T11:47:55;102105.59;;;8.01;100.00
66664;BME280;59683;51.428;-1.994;2024-01-30T11:50:20;102096.00;;;8.00;100.00
66664;BME280;59683;51.428;-1.994;2024-01-30T11:52:47;102097.91;;;7.96;100.00
66664;BME280;59683;51.428;-1.994;2024-01-30T11:55:14;102084.84;;;7.93;100.00
66664;BME280;59683;51.428;-1.994;2024-01-30T11:57:39;102090.13;;;7.93;100.00
66664;BME280;59683;51.428;-1.994;2024-01-30T12:00:05;102086.66;;;7.93;100.00
66664;BME280;59683;51.428;-1.994;2024-01-30T12:02:38;102101.81;;;7.88;100.00
66664;BME280;59683;51.428;-1.994;2024-01-30T12:05:07;102105.94;;;7.93;100.00
66664;BME280;59683;51.428;-1.994;2024-01-30T12:07:33;102104.97;;;7.96;100.00
66664;BME280;59683;51.428;-1.994;2024-01-30T12:09:59;102104.31;;;7.91;100.00
66664;BME280;59683;51.428;-1.994;2024-01-30T12:12:28;102104.38;;;7.89;100.00
66664;BME280;59683;51.428;-1.994;2024-01-30T12:14:55;102102.03;;;7.83;100.00
66664;BME280;59683;51.428;-1.994;2024-01-30T12:17:32;102123.16;;;7.82;100.00
66664;BME280;59683;51.428;-1.994;2024-01-30T12:22:45;102124.53;;;7.71;100.00
66664;BME280;59683;51.428;-1.994;2024-01-30T12:25:16;102119.16;;;7.73;100.00
66664;BME280;59683;51.428;-1.994;2024-01-30T12:27:46;102133.06;;;7.76;100.00
66664;BME280;59683;51.428;-1.994;2024-01-30T12:30:13;102137.28;;;7.81;100.00
66664;BME280;59683;51.428;-1.994;2024-01-30T12:32:43;102132.88;;;7.81;100.00
66664;BME280;59683;51.428;-1.994;2024-01-30T12:37:38;102126.75;;;7.81;100.00
66664;BME280;59683;51.428;-1.994;2024-01-30T12:40:04;102128.41;;;7.83;100.00
66664;BME280;59683;51.428;-1.994;2024-01-30T12:42:31;102121.78;;;7.93;100.00